Steeltown, Texas
Current Conditions -  °F | °C
As of 11:53 AM on Saturday 25 Oct 2014 (Local Time) from KBPT Reporting Station
Clear Clear  
Wind Chill: 79°   Ceiling: Unl
Heat Index: 79°   Visibility: 10mi
Dew Point: 53°   Wind: 6mph
Humidity: 40%   Direction: 70°ENE
Pressure: 30.17"   Gusts: NA
Location:  29.9495°N, 93.9207°W
Report Text: KBPT 251653Z 07005KT 10SM CLR 26/12 A3017 RMK AO2 SLP215 T02610117
Loading
Personal Weather Stations






























Interactive Weather Map
Tropical Storm Tracking
New forecast layout! Learn more

10-Day Weather Forecast

Advertisements
Track Severe Weather on mobile